createdAt,value
2023-02-12T00:01:12.524Z,100221.88
2023-02-12T00:03:19.991Z,100223.66
2023-02-12T00:05:25.172Z,100220.25
2023-02-12T00:07:33.317Z,100221.97
2023-02-12T00:09:39.247Z,100213.38
2023-02-12T00:11:44.913Z,100216.84
2023-02-12T00:13:50.353Z,100219.47
2023-02-12T00:15:55.599Z,100225.50
2023-02-12T00:18:00.626Z,100224.63
2023-02-12T00:20:09.440Z,100219.47
2023-02-12T00:22:14.311Z,100215.22
2023-02-12T00:24:19.193Z,100221.28
2023-02-12T00:26:25.365Z,100219.59
2023-02-12T00:28:30.795Z,100221.38
2023-02-12T00:30:35.715Z,100207.59
2023-02-12T00:32:40.974Z,100209.28
2023-02-12T00:34:45.942Z,100209.28
2023-02-12T00:36:55.903Z,100207.63
2023-02-12T00:39:01.196Z,100213.66
2023-02-12T00:41:05.808Z,100217.97
2023-02-12T00:43:10.685Z,100216.25
2023-02-12T00:45:15.749Z,100205.03
2023-02-12T00:47:20.351Z,100205.88
2023-02-12T00:49:28.348Z,100211.91
2023-02-12T00:51:32.945Z,100211.06
2023-02-12T00:53:41.072Z,100215.38
2023-02-12T00:55:45.988Z,100215.38
2023-02-12T00:57:50.806Z,100222.31
2023-02-12T00:59:55.694Z,100224.03
2023-02-12T01:02:01.764Z,100221.47
2023-02-12T01:04:07.118Z,100216.31
2023-02-12T01:06:12.097Z,100224.94
2023-02-12T01:08:19.625Z,100218.06
2023-02-12T01:10:27.299Z,100222.38
2023-02-12T01:12:32.227Z,100212.00
2023-02-12T01:14:37.420Z,100219.78
2023-02-12T01:16:42.337Z,100214.56
2023-02-12T01:18:48.665Z,100215.44
2023-02-12T01:20:53.734Z,100211.16
2023-02-12T01:23:01.811Z,100214.59
2023-02-12T01:25:06.552Z,100208.53
2023-02-12T01:27:13.955Z,100210.25
2023-02-12T01:29:18.745Z,100211.91
2023-02-12T01:31:25.461Z,100208.47
2023-02-12T01:33:31.687Z,100211.97
2023-02-12T01:35:37.593Z,100211.06
2023-02-12T01:37:42.445Z,100227.50
2023-02-12T01:39:47.302Z,100217.13
2023-02-12T01:41:55.868Z,100214.53
2023-02-12T01:44:28.706Z,100219.63
2023-02-12T01:46:33.644Z,100209.25
2023-02-12T01:48:41.779Z,100209.25
2023-02-12T01:50:49.271Z,100205.81
2023-02-12T01:52:57.695Z,100197.22
2023-02-12T01:55:08.304Z,100203.28
2023-02-12T01:57:15.720Z,100202.34
2023-02-12T01:59:22.928Z,100209.25
2023-02-12T02:01:32.770Z,100208.31
2023-02-12T02:03:40.605Z,100214.28
2023-02-12T02:05:55.235Z,100216.84
2023-02-12T02:08:01.971Z,100219.44
2023-02-12T02:10:10.783Z,100216.00
2023-02-12T02:12:28.126Z,100211.63
2023-02-12T02:14:33.606Z,100215.09
2023-02-12T02:16:48.318Z,100212.53
2023-02-12T02:19:02.599Z,100221.91
2023-02-12T02:21:34.835Z,100212.41
2023-02-12T02:24:09.204Z,100211.56
2023-02-12T02:26:40.057Z,100213.34
2023-02-12T02:29:10.586Z,100215.13
2023-02-12T02:31:23.961Z,100221.22
2023-02-12T02:33:42.441Z,100211.75
2023-02-12T02:35:56.453Z,100215.25
2023-02-12T02:38:10.473Z,100212.66
2023-02-12T02:40:20.385Z,100210.13
2023-02-12T02:42:30.605Z,100215.28
2023-02-12T02:44:41.871Z,100211.00
2023-02-12T02:46:51.974Z,100217.88
2023-02-12T02:49:02.233Z,100217.88
2023-02-12T02:51:12.141Z,100221.31
2023-02-12T02:53:21.569Z,100227.41
2023-02-12T02:55:31.262Z,100229.13
2023-02-12T02:57:41.540Z,100228.28
2023-02-12T02:59:51.690Z,100218.84
2023-02-12T03:02:06.067Z,100228.34
2023-02-12T03:04:15.614Z,100226.63
2023-02-12T03:06:27.505Z,100218.88
2023-02-12T03:08:37.250Z,100220.63
2023-02-12T03:10:45.833Z,100230.13
2023-02-12T03:12:56.882Z,100227.53
2023-02-12T03:15:07.763Z,100224.88
2023-02-12T03:17:19.864Z,100224.88
2023-02-12T03:19:28.055Z,100231.78
2023-02-12T03:21:36.674Z,100230.06
2023-02-12T03:23:49.129Z,100233.53
2023-02-12T03:25:57.882Z,100232.69
2023-02-12T03:28:09.653Z,100231.78
2023-02-12T03:30:17.113Z,100234.31
2023-02-12T03:32:34.236Z,100234.34
2023-02-12T03:34:49.094Z,100236.06
2023-02-12T03:36:58.750Z,100245.50
2023-02-12T03:39:12.369Z,100243.78
2023-02-12T03:41:23.860Z,100243.81
2023-02-12T03:43:35.949Z,100241.22
2023-02-12T03:45:47.854Z,100243.84
2023-02-12T03:48:05.233Z,100238.69
2023-02-12T03:50:17.093Z,100250.72
2023-02-12T03:52:22.012Z,100246.47
2023-02-12T03:54:27.567Z,100245.63
2023-02-12T03:56:38.262Z,100240.44
2023-02-12T03:58:45.826Z,100243.03
2023-02-12T04:00:51.240Z,100245.56
2023-02-12T04:02:59.535Z,100249.88
2023-02-12T04:05:08.045Z,100249.84
2023-02-12T04:07:13.293Z,100251.59
2023-02-12T04:09:18.121Z,100248.97
2023-02-12T04:11:32.556Z,100248.97
2023-02-12T04:13:45.569Z,100259.34
2023-02-12T04:16:05.913Z,100259.38
2023-02-12T04:18:18.054Z,100254.16
2023-02-12T04:20:30.522Z,100258.47
2023-02-12T04:22:48.952Z,100254.16
2023-02-12T04:25:02.614Z,100255.03
2023-02-12T04:27:15.450Z,100260.22
2023-02-12T04:29:28.706Z,100261.09
2023-02-12T04:31:40.561Z,100260.25
2023-02-12T04:34:00.666Z,100265.41
2023-02-12T04:36:11.999Z,100265.41
2023-02-12T04:38:22.501Z,100261.94
2023-02-12T04:40:27.750Z,100261.09
2023-02-12T04:42:32.342Z,100261.97
2023-02-12T04:44:42.137Z,100267.97
2023-02-12T04:46:46.903Z,100271.44
2023-02-12T04:48:57.650Z,100274.09
2023-02-12T04:51:02.586Z,100278.38
2023-02-12T04:53:07.386Z,100276.69
2023-02-12T04:55:12.257Z,100273.25
2023-02-12T04:57:17.147Z,100278.41
2023-02-12T04:59:22.037Z,100279.28
2023-02-12T05:01:28.070Z,100278.38
2023-02-12T05:03:34.090Z,100274.00
2023-02-12T05:05:41.479Z,100277.47
2023-02-12T05:07:46.372Z,100278.31
2023-02-12T05:09:51.237Z,100281.75
2023-02-12T05:11:56.138Z,100285.22
2023-02-12T05:14:01.694Z,100289.47
2023-02-12T05:16:07.590Z,100290.31
2023-02-12T05:18:12.483Z,100281.72
2023-02-12T05:20:17.461Z,100286.06
2023-02-12T05:22:24.926Z,100285.22
2023-02-12T05:24:29.997Z,100284.38
2023-02-12T05:26:34.810Z,100285.28
2023-02-12T05:28:39.679Z,100281.88
2023-02-12T05:30:44.546Z,100286.19
2023-02-12T05:32:49.628Z,100286.19
2023-02-12T05:34:54.951Z,100287.88
2023-02-12T05:37:02.408Z,100289.56
2023-02-12T05:39:10.342Z,100292.09
2023-02-12T05:41:17.028Z,100297.22
2023-02-12T05:43:21.788Z,100306.69
2023-02-12T05:45:28.239Z,100309.28
2023-02-12T05:47:33.035Z,100308.41
2023-02-12T05:49:37.854Z,100311.81
2023-02-12T05:51:42.746Z,100317.81
2023-02-12T05:53:47.546Z,100327.28
2023-02-12T05:55:57.453Z,100323.84
2023-02-12T05:58:02.316Z,100331.53
2023-02-12T06:00:09.754Z,100332.41
2023-02-12T06:02:17.011Z,100333.28
2023-02-12T06:04:23.860Z,100330.72
2023-02-12T06:06:29.157Z,100323.84
2023-02-12T06:08:34.361Z,100335.94
2023-02-12T06:10:40.021Z,100332.47
2023-02-12T06:12:47.392Z,100327.31
2023-02-12T06:14:52.317Z,100322.16
2023-02-12T06:16:57.411Z,100334.28
2023-02-12T06:19:03.734Z,100330.81
2023-02-12T06:21:08.794Z,100332.53
2023-02-12T06:23:13.674Z,100330.78
2023-02-12T06:25:18.636Z,100331.63
2023-02-12T06:27:23.463Z,100336.78
2023-02-12T06:29:30.879Z,100333.38
2023-02-12T06:31:39.370Z,100340.31
2023-02-12T06:33:44.265Z,100338.59
2023-02-12T06:35:49.076Z,100336.00
2023-02-12T06:37:53.882Z,100339.47
2023-02-12T06:39:58.729Z,100336.03
2023-02-12T06:42:04.521Z,100342.09
2023-02-12T06:44:09.827Z,100346.47
2023-02-12T06:46:17.376Z,100349.88
2023-02-12T06:48:22.241Z,100348.19
2023-02-12T06:50:27.574Z,100356.00
2023-02-12T06:52:32.545Z,100366.38
2023-02-12T06:54:37.358Z,100356.91
2023-02-12T06:56:42.293Z,100360.38
2023-02-12T06:58:50.332Z,100365.56
2023-02-12T07:00:55.307Z,100356.09
2023-02-12T07:03:02.850Z,100365.59
2023-02-12T07:05:10.895Z,100359.59
2023-02-12T07:07:16.007Z,100368.25
2023-02-12T07:09:20.900Z,100376.03
2023-02-12T07:11:27.050Z,100376.03
2023-02-12T07:13:35.061Z,100374.31
2023-02-12T07:15:42.490Z,100366.56
2023-02-12T07:17:47.370Z,100371.72
2023-02-12T07:19:57.270Z,100376.03
2023-02-12T07:22:02.385Z,100376.03
2023-02-12T07:24:07.735Z,100378.59
2023-02-12T07:26:15.491Z,100382.88
2023-02-12T07:28:20.310Z,100379.44
2023-02-12T07:30:25.425Z,100381.16
2023-02-12T07:32:30.214Z,100380.28
2023-02-12T07:34:35.520Z,100384.66
2023-02-12T07:36:43.056Z,100370.88
2023-02-12T07:38:48.176Z,100389.00
2023-02-12T07:40:53.203Z,100378.66
2023-02-12T07:42:58.833Z,100381.25
2023-02-12T07:45:03.590Z,100385.59
2023-02-12T07:47:08.407Z,100381.25
2023-02-12T07:49:16.146Z,100375.25
2023-02-12T07:51:21.617Z,100378.72
2023-02-12T07:53:28.972Z,100379.63
2023-02-12T07:55:33.936Z,100386.53
2023-02-12T07:57:39.366Z,100382.19
2023-02-12T07:59:44.204Z,100381.31
2023-02-12T08:01:51.101Z,100381.31
2023-02-12T08:03:56.475Z,100379.63
2023-02-12T08:06:01.255Z,100383.09
2023-02-12T08:08:06.165Z,100381.34
2023-02-12T08:10:16.759Z,100381.34
2023-02-12T08:12:22.031Z,100384.84
2023-02-12T08:14:26.946Z,100393.44
2023-02-12T08:16:33.189Z,100395.09
2023-02-12T08:18:38.220Z,100394.31
2023-02-12T08:20:43.170Z,100396.91
2023-02-12T08:22:47.975Z,100394.34
2023-02-12T08:24:52.803Z,100400.44
2023-02-12T08:27:00.949Z,100397.06
2023-02-12T08:29:07.990Z,100396.25
2023-02-12T08:31:15.436Z,100391.09
2023-02-12T08:33:20.299Z,100381.63
2023-02-12T08:35:25.077Z,100379.03
2023-02-12T08:37:29.831Z,100374.72
2023-02-12T08:39:34.734Z,100373.84
2023-02-12T08:41:40.137Z,100366.09
2023-02-12T08:43:48.064Z,100369.56
2023-02-12T08:45:53.298Z,100372.13
2023-02-12T08:47:58.454Z,100371.28
2023-02-12T08:50:03.879Z,100375.53
2023-02-12T08:52:08.748Z,100369.50
2023-02-12T08:54:15.662Z,100373.78
2023-02-12T08:56:21.096Z,100377.28
2023-02-12T08:58:25.986Z,100370.34
2023-02-12T09:00:33.480Z,100375.53
2023-02-12T09:02:38.395Z,100377.22
2023-02-12T09:04:43.201Z,100385.88
2023-02-12T09:06:49.192Z,100384.19
2023-02-12T09:08:56.979Z,100382.47
2023-02-12T09:11:02.062Z,100385.06
2023-02-12T09:13:06.982Z,100393.72
2023-02-12T09:15:12.349Z,100385.97
2023-02-12T09:17:19.872Z,100392.91
2023-02-12T09:19:24.942Z,100386.88
2023-02-12T09:21:30.269Z,100391.22
2023-02-12T09:23:35.330Z,100385.16
2023-02-12T09:25:44.827Z,100386.00
2023-02-12T09:27:49.650Z,100391.19
2023-02-12T09:29:55.044Z,100401.56
2023-02-12T09:31:59.883Z,100394.63
2023-02-12T09:34:08.957Z,100398.94
2023-02-12T09:36:16.057Z,100396.34
2023-02-12T09:38:20.852Z,100403.28
2023-02-12T09:40:33.889Z,100404.16
2023-02-12T09:43:02.966Z,100405.84
2023-02-12T09:45:19.410Z,100409.31
2023-02-12T09:47:29.265Z,100401.53
2023-02-12T09:50:09.948Z,100398.09
2023-02-12T09:52:19.556Z,100401.56
2023-02-12T09:54:28.817Z,100405.00
2023-02-12T09:56:39.792Z,100408.47
2023-02-12T09:58:49.337Z,100407.59
2023-02-12T10:00:56.781Z,100411.00
2023-02-12T10:03:05.914Z,100415.34
2023-02-12T10:05:20.428Z,100408.44
2023-02-12T10:07:39.942Z,100408.47
2023-02-12T10:10:01.067Z,100407.63
2023-02-12T10:12:15.600Z,100405.03
2023-02-12T10:14:37.408Z,100410.22
2023-02-12T10:16:52.198Z,100414.53
2023-02-12T10:19:17.267Z,100405.88
2023-02-12T10:21:42.492Z,100406.78
2023-02-12T10:24:03.322Z,100400.75
2023-02-12T10:26:19.196Z,100398.16
2023-02-12T10:28:29.271Z,100406.78
2023-02-12T10:30:42.850Z,100407.69
2023-02-12T10:32:50.534Z,100406.84
2023-02-12T10:34:56.688Z,100402.53
2023-02-12T10:37:07.983Z,100401.69
2023-02-12T10:39:19.902Z,100399.94
2023-02-12T10:41:27.737Z,100403.41
2023-02-12T10:43:32.803Z,100395.63
2023-02-12T10:45:40.121Z,100401.66
2023-02-12T10:47:45.208Z,100401.63
2023-02-12T10:49:55.605Z,100395.56
2023-02-12T10:52:12.476Z,100403.34
2023-02-12T10:54:40.361Z,100402.50
2023-02-12T10:56:45.348Z,100399.00
2023-02-12T10:59:01.806Z,100398.16
2023-02-12T11:01:07.739Z,100399.03
2023-02-12T11:03:23.835Z,100397.34
2023-02-12T11:05:34.734Z,100395.59
2023-02-12T11:07:52.223Z,100393.91
2023-02-12T11:09:59.681Z,100387.00
2023-02-12T11:12:05.477Z,100391.31
2023-02-12T11:14:21.254Z,100388.69
2023-02-12T11:16:34.577Z,100389.56
2023-02-12T11:18:39.965Z,100386.94
2023-02-12T11:20:56.009Z,100377.44
2023-02-12T11:23:06.448Z,100383.50
2023-02-12T11:25:18.708Z,100377.44
2023-02-12T11:27:28.814Z,100386.06
2023-02-12T11:29:33.800Z,100367.88
2023-02-12T11:31:41.719Z,100380.88
2023-02-12T11:33:46.782Z,100380.06
2023-02-12T11:35:57.527Z,100386.97
2023-02-12T11:38:07.156Z,100383.50
2023-02-12T11:40:19.810Z,100388.69
2023-02-12T11:42:28.715Z,100377.44
2023-02-12T11:44:37.155Z,100388.72
2023-02-12T11:46:43.147Z,100386.97
2023-02-12T11:48:50.174Z,100381.78
2023-02-12T11:50:57.707Z,100385.25
2023-02-12T11:53:09.520Z,100380.91
2023-02-12T11:55:24.883Z,100380.06
2023-02-12T11:57:39.959Z,100371.38
2023-02-12T11:59:49.869Z,100381.78
2023-02-12T12:01:58.196Z,100372.25
2023-02-12T12:04:08.056Z,100374.00
2023-02-12T12:06:24.362Z,100373.13
2023-02-12T12:08:36.450Z,100374.84
2023-02-12T12:10:47.289Z,100373.09
2023-02-12T12:12:56.029Z,100373.97
2023-02-12T12:15:18.117Z,100374.84
2023-02-12T12:17:38.478Z,100378.31
2023-02-12T12:19:56.394Z,100361.88
2023-02-12T12:22:08.018Z,100362.75
2023-02-12T12:24:20.236Z,100368.78
2023-02-12T12:26:28.193Z,100365.34
2023-02-12T12:28:37.911Z,100369.66
2023-02-12T12:30:52.451Z,100374.84
2023-02-12T12:33:02.410Z,100360.97
2023-02-12T12:35:08.426Z,100363.56
2023-02-12T12:37:27.754Z,100370.50
2023-02-12T12:39:39.562Z,100363.53
2023-02-12T12:42:00.042Z,100356.59
2023-02-12T12:44:18.300Z,100352.25
2023-02-12T12:46:43.317Z,100350.50
2023-02-12T12:49:23.697Z,100357.44
2023-02-12T12:51:41.430Z,100351.41
2023-02-12T12:53:57.857Z,100351.41
2023-02-12T12:56:22.101Z,100350.50
2023-02-12T12:58:39.385Z,100340.97
2023-02-12T13:01:05.239Z,100340.09
2023-02-12T13:03:40.725Z,100334.84
2023-02-12T13:06:09.614Z,100335.72
2023-02-12T13:08:28.624Z,100327.03
2023-02-12T13:10:39.620Z,100329.59
2023-02-12T13:13:03.134Z,100327.00
2023-02-12T13:15:18.048Z,100325.25
2023-02-12T13:17:28.459Z,100328.75
2023-02-12T13:19:44.978Z,100328.72
2023-02-12T13:21:57.764Z,100328.91
2023-02-12T13:24:06.439Z,100334.06
2023-02-12T13:26:20.817Z,100334.03
2023-02-12T13:28:36.646Z,100334.06
2023-02-12T13:30:45.955Z,100334.06
2023-02-12T13:32:58.768Z,100333.22
2023-02-12T13:35:06.000Z,100337.53
2023-02-12T13:37:18.938Z,100338.38
2023-02-12T13:39:34.062Z,100332.31
2023-02-12T13:41:39.714Z,100338.34
2023-02-12T13:44:01.158Z,100335.72
2023-02-12T13:46:14.062Z,100333.97
2023-02-12T13:48:44.309Z,100336.56
2023-02-12T13:51:01.435Z,100340.84
2023-02-12T13:53:17.163Z,100332.19
2023-02-12T13:55:28.218Z,100339.16
2023-02-12T13:57:33.345Z,100333.13
2023-02-12T13:59:45.122Z,100334.84
2023-02-12T14:01:51.832Z,100332.22
2023-02-12T14:03:56.973Z,100332.25
2023-02-12T14:06:14.039Z,100333.16
2023-02-12T14:08:40.088Z,100334.94
2023-02-12T14:10:45.322Z,100339.31
2023-02-12T14:12:50.045Z,100334.13
2023-02-12T14:15:07.275Z,100334.13
2023-02-12T14:17:43.008Z,100340.22
2023-02-12T14:20:08.970Z,100344.53
2023-02-12T14:22:16.260Z,100341.94
2023-02-12T14:24:56.046Z,100348.00
2023-02-12T14:27:01.569Z,100336.78
2023-02-12T14:29:17.942Z,100340.22
2023-02-12T14:31:36.810Z,100331.56
2023-02-12T14:33:41.746Z,100327.22
2023-02-12T14:35:49.576Z,100323.78
2023-02-12T14:37:56.970Z,100328.97
2023-02-12T14:40:31.734Z,100326.41
2023-02-12T14:42:47.487Z,100319.47
2023-02-12T14:44:59.291Z,100331.59
2023-02-12T14:47:12.916Z,100328.97
2023-02-12T14:49:28.210Z,100325.53
2023-02-12T14:51:39.723Z,100329.84
2023-02-12T14:53:46.719Z,100329.00
2023-02-12T14:55:54.027Z,100331.59
2023-02-12T14:58:02.892Z,100334.19
2023-02-12T15:00:23.908Z,100327.25
2023-02-12T15:02:35.349Z,100326.34
2023-02-12T15:04:44.593Z,100322.03
2023-02-12T15:06:55.572Z,100318.56
2023-02-12T15:09:05.550Z,100320.31
2023-02-12T15:11:19.928Z,100321.16
2023-02-12T15:13:31.316Z,100328.09
2023-02-12T15:15:42.070Z,100322.91
2023-02-12T15:17:59.285Z,100325.47
2023-02-12T15:20:08.449Z,100325.50
2023-02-12T15:22:23.182Z,100322.88
2023-02-12T15:24:29.587Z,100335.84
2023-02-12T15:26:39.497Z,100328.06
2023-02-12T15:28:49.338Z,100327.19
2023-02-12T15:30:58.897Z,100322.00
2023-02-12T15:33:08.556Z,100322.03
2023-02-12T15:35:25.938Z,100317.72
2023-02-12T15:37:34.056Z,100312.50
2023-02-12T15:39:45.284Z,100314.22
2023-02-12T15:41:50.845Z,100318.53
2023-02-12T15:43:55.783Z,100315.94
2023-02-12T15:46:00.866Z,100315.94
2023-02-12T15:48:15.533Z,100315.94
2023-02-12T15:50:22.722Z,100315.06
2023-02-12T15:52:35.461Z,100315.94
2023-02-12T15:54:41.297Z,100315.88
2023-02-12T15:56:46.193Z,100310.72
2023-02-12T15:58:55.825Z,100311.56
2023-02-12T16:01:06.428Z,100313.28
2023-02-12T16:03:24.378Z,100305.50
2023-02-12T16:05:30.231Z,100305.47
2023-02-12T16:07:39.691Z,100305.50
2023-02-12T16:09:46.129Z,100311.53
2023-02-12T16:11:51.677Z,100303.75
2023-02-12T16:13:59.659Z,100308.06
2023-02-12T16:16:10.539Z,100302.03
2023-02-12T16:18:30.424Z,100309.75
2023-02-12T16:20:35.534Z,100313.22
2023-02-12T16:22:42.572Z,100316.66
2023-02-12T16:24:50.388Z,100316.63
2023-02-12T16:26:55.679Z,100322.63
2023-02-12T16:29:00.658Z,100320.88
2023-02-12T16:31:14.745Z,100319.94
2023-02-12T16:33:38.618Z,100325.13
2023-02-12T16:35:43.477Z,100332.81
2023-02-12T16:37:51.124Z,100335.44
2023-02-12T16:40:37.634Z,100333.72
2023-02-12T16:42:42.603Z,100336.25
2023-02-12T16:44:47.507Z,100337.94
2023-02-12T16:46:55.075Z,100333.63
2023-02-12T16:49:04.838Z,100347.41
2023-02-12T16:51:24.626Z,100347.38
2023-02-12T16:53:43.925Z,100343.91
2023-02-12T16:55:48.865Z,100350.81
2023-02-12T16:57:56.724Z,100357.72
2023-02-12T17:00:01.618Z,100354.25
2023-02-12T17:02:09.927Z,100353.38
2023-02-12T17:04:19.065Z,100354.22
2023-02-12T17:06:25.854Z,100355.94
2023-02-12T17:08:30.702Z,100358.47
2023-02-12T17:10:35.506Z,100361.91
2023-02-12T17:12:47.858Z,100361.00
2023-02-12T17:14:55.152Z,100360.06
2023-02-12T17:17:00.026Z,100367.81
2023-02-12T17:19:04.901Z,100364.38
2023-02-12T17:21:19.885Z,100355.72
2023-02-12T17:23:25.188Z,100372.94
2023-02-12T17:25:30.275Z,100371.19
2023-02-12T17:27:37.327Z,100373.75
2023-02-12T17:29:42.914Z,100372.88
2023-02-12T17:31:48.326Z,100372.84
2023-02-12T17:33:55.511Z,100371.09
2023-02-12T17:36:01.243Z,100377.13
2023-02-12T17:38:09.415Z,100376.22
2023-02-12T17:40:14.978Z,100380.50
2023-02-12T17:42:20.152Z,100377.00
2023-02-12T17:44:24.930Z,100382.13
2023-02-12T17:46:31.661Z,100386.41
2023-02-12T17:48:36.467Z,100384.72
2023-02-12T17:50:41.989Z,100384.75
2023-02-12T17:52:47.118Z,100381.31
2023-02-12T17:54:56.890Z,100384.84
2023-02-12T17:57:01.735Z,100379.72
2023-02-12T17:59:06.685Z,100383.13
2023-02-12T18:01:13.512Z,100382.31
2023-02-12T18:03:18.417Z,100381.50
2023-02-12T18:05:23.297Z,100385.00
2023-02-12T18:07:28.240Z,100383.34
2023-02-12T18:09:33.597Z,100383.28
2023-02-12T18:11:42.488Z,100385.81
2023-02-12T18:13:47.689Z,100387.59
2023-02-12T18:15:52.478Z,100393.63
2023-02-12T18:17:59.676Z,100392.75
2023-02-12T18:20:04.834Z,100398.78
2023-02-12T18:22:09.857Z,100397.91
2023-02-12T18:24:15.504Z,100387.50
2023-02-12T18:26:21.742Z,100396.16
2023-02-12T18:28:29.272Z,100395.34
2023-02-12T18:30:34.292Z,100390.22
2023-02-12T18:32:39.611Z,100388.50
2023-02-12T18:34:44.429Z,100385.81
2023-02-12T18:36:49.499Z,100384.06
2023-02-12T18:38:55.612Z,100387.56
2023-02-12T18:41:01.135Z,100387.59
2023-02-12T18:43:05.970Z,100384.16
2023-02-12T18:45:13.590Z,100385.00
2023-02-12T18:47:19.734Z,100388.47
2023-02-12T18:49:33.519Z,100377.25
2023-02-12T18:51:41.168Z,100367.84
2023-02-12T18:53:46.679Z,100372.16
2023-02-12T18:55:58.082Z,100369.63
2023-02-12T18:58:05.262Z,100366.97
2023-02-12T19:00:16.293Z,100367.81
2023-02-12T19:02:21.294Z,100367.78
2023-02-12T19:04:28.550Z,100364.28
2023-02-12T19:06:39.364Z,100368.69
2023-02-12T19:08:46.654Z,100369.44
2023-02-12T19:10:55.259Z,100373.81
2023-02-12T19:13:01.088Z,100372.94
2023-02-12T19:15:08.271Z,100370.41
2023-02-12T19:17:15.647Z,100366.13
2023-02-12T19:19:23.649Z,100366.19
2023-02-12T19:21:28.849Z,100373.09
2023-02-12T19:23:33.470Z,100366.25
2023-02-12T19:25:42.814Z,100363.59
2023-02-12T19:27:47.690Z,100374.03
2023-02-12T19:29:52.532Z,100371.50
2023-02-12T19:31:59.622Z,100363.75
2023-02-12T19:34:10.408Z,100362.94
2023-02-12T19:36:20.481Z,100362.94
2023-02-12T19:38:28.091Z,100372.44
2023-02-12T19:40:33.297Z,100367.28
2023-02-12T19:42:38.112Z,100373.38
2023-02-12T19:44:44.596Z,100366.50
2023-02-12T19:46:52.667Z,100363.09
2023-02-12T19:49:02.654Z,100372.59
2023-02-12T19:51:16.214Z,100368.25
2023-02-12T19:53:24.325Z,100376.91
2023-02-12T19:55:29.086Z,100366.53
2023-02-12T19:57:39.069Z,100364.81
2023-02-12T19:59:46.555Z,100367.44
2023-02-12T20:01:52.314Z,100369.16
2023-02-12T20:04:00.682Z,100369.13
2023-02-12T20:06:13.437Z,100362.19
2023-02-12T20:08:24.886Z,100373.34
2023-02-12T20:10:29.772Z,100363.88
2023-02-12T20:12:36.332Z,100369.00
2023-02-12T20:14:41.249Z,100362.13
2023-02-12T20:16:48.061Z,100362.94
2023-02-12T20:19:02.702Z,100372.50
2023-02-12T20:21:15.573Z,100375.94
2023-02-12T20:23:20.435Z,100369.06
2023-02-12T20:25:32.520Z,100378.53
2023-02-12T20:27:37.482Z,100366.50
2023-02-12T20:29:42.260Z,100365.59
2023-02-12T20:31:49.771Z,100371.59
2023-02-12T20:33:58.203Z,100364.66
2023-02-12T20:36:05.298Z,100368.97
2023-02-12T20:38:12.770Z,100369.81
2023-02-12T20:40:20.710Z,100367.25
2023-02-12T20:42:25.650Z,100362.03
2023-02-12T20:44:37.246Z,100368.97
2023-02-12T20:46:42.844Z,100366.41
2023-02-12T20:48:51.514Z,100369.84
2023-02-12T20:50:56.459Z,100370.69
2023-02-12T20:53:02.456Z,100374.09
2023-02-12T20:55:10.759Z,100379.28
2023-02-12T20:57:15.705Z,100390.50
2023-02-12T20:59:21.254Z,100388.81
2023-02-12T21:01:29.385Z,100386.28
2023-02-12T21:03:34.287Z,100390.63
2023-02-12T21:05:42.326Z,100383.66
2023-02-12T21:07:49.788Z,100389.72
2023-02-12T21:09:56.651Z,100391.44
2023-02-12T21:12:04.103Z,100385.34
2023-02-12T21:14:25.054Z,100385.28
2023-02-12T21:16:34.740Z,100385.25
2023-02-12T21:18:40.789Z,100397.34
2023-02-12T21:20:45.645Z,100391.31
2023-02-12T21:22:50.492Z,100387.00
2023-02-12T21:24:55.333Z,100392.22
2023-02-12T21:27:03.146Z,100381.88
2023-02-12T21:29:08.088Z,100383.69
2023-02-12T21:31:15.086Z,100376.78
2023-02-12T21:33:19.976Z,100381.13
2023-02-12T21:35:24.805Z,100380.28
2023-02-12T21:37:29.700Z,100387.97
2023-02-12T21:39:34.526Z,100380.22
2023-02-12T21:41:41.841Z,100389.69
2023-02-12T21:43:51.348Z,100394.00
2023-02-12T21:45:56.498Z,100384.50
2023-02-12T21:48:01.638Z,100380.16
2023-02-12T21:50:06.863Z,100389.63
2023-02-12T21:52:11.678Z,100380.16
2023-02-12T21:54:18.277Z,100381.09
2023-02-12T21:56:23.913Z,100376.75
2023-02-12T21:58:28.815Z,100375.03
2023-02-12T22:00:36.264Z,100371.63
2023-02-12T22:02:41.181Z,100365.59
2023-02-12T22:04:46.151Z,100370.78
2023-02-12T22:06:54.151Z,100371.66
2023-02-12T22:09:03.331Z,100370.75
2023-02-12T22:11:09.656Z,100371.63
2023-02-12T22:13:14.601Z,100366.44
2023-02-12T22:15:19.633Z,100375.06
2023-02-12T22:17:27.023Z,100370.72
2023-02-12T22:19:31.996Z,100375.00
2023-02-12T22:21:39.008Z,100372.41
2023-02-12T22:23:44.824Z,100370.69
2023-02-12T22:25:49.641Z,100376.72
2023-02-12T22:27:54.963Z,100368.91
2023-02-12T22:29:59.550Z,100366.28
2023-02-12T22:32:04.612Z,100364.56
2023-02-12T22:34:15.177Z,100361.09
2023-02-12T22:36:22.009Z,100371.47
2023-02-12T22:38:26.829Z,100365.38
2023-02-12T22:40:31.960Z,100365.31
2023-02-12T22:42:36.848Z,100360.97
2023-02-12T22:44:41.758Z,100370.44
2023-02-12T22:46:46.579Z,100366.13
2023-02-12T22:48:51.945Z,100373.00
2023-02-12T22:51:03.145Z,100375.56
2023-02-12T22:53:08.170Z,100381.53
2023-02-12T22:55:13.265Z,100379.78
2023-02-12T22:57:19.622Z,100378.84
2023-02-12T22:59:24.779Z,100377.19
2023-02-12T23:01:31.015Z,100379.72
2023-02-12T23:03:37.529Z,100369.28
2023-02-12T23:05:42.470Z,100368.38
2023-02-12T23:07:49.911Z,100369.19
2023-02-12T23:09:54.959Z,100369.13
2023-02-12T23:11:59.779Z,100370.75
2023-02-12T23:14:04.651Z,100371.53
2023-02-12T23:16:09.673Z,100370.69
2023-02-12T23:18:14.545Z,100371.47
2023-02-12T23:20:19.387Z,100371.44
2023-02-12T23:22:24.290Z,100370.50
2023-02-12T23:24:31.766Z,100379.13
2023-02-12T23:26:36.759Z,100370.44
2023-02-12T23:28:41.671Z,100374.69
2023-02-12T23:30:46.588Z,100373.75
2023-02-12T23:32:51.515Z,100372.78
2023-02-12T23:34:56.285Z,100371.81
2023-02-12T23:37:01.123Z,100377.78
2023-02-12T23:39:06.621Z,100370.88
2023-02-12T23:41:14.142Z,100369.16
2023-02-12T23:43:19.001Z,100359.69
2023-02-12T23:45:23.763Z,100361.41
2023-02-12T23:47:28.621Z,100363.97
2023-02-12T23:49:35.285Z,100359.63
2023-02-12T23:51:40.062Z,100356.09
2023-02-12T23:53:45.243Z,100354.31
2023-02-12T23:55:52.082Z,100351.69
2023-02-12T23:57:59.479Z,100349.00
